sensor_id;sensor_type;location;lat;lon;timestamp;temperature;humidity
17442;DHT22;8838;50.144;8.176;2024-02-26T00:02:02;6.50;99.90
17442;DHT22;8838;50.144;8.176;2024-02-26T00:04:29;6.50;99.90
17442;DHT22;8838;50.144;8.176;2024-02-26T00:06:56;6.50;99.90
17442;DHT22;8838;50.144;8.176;2024-02-26T00:09:23;6.50;99.90
17442;DHT22;8838;50.144;8.176;2024-02-26T00:11:50;6.50;99.90
17442;DHT22;8838;50.144;8.176;2024-02-26T00:14:17;6.50;99.90
17442;DHT22;8838;50.144;8.176;2024-02-26T00:16:43;6.40;99.90
17442;DHT22;8838;50.144;8.176;2024-02-26T00:19:12;6.40;99.90
17442;DHT22;8838;50.144;8.176;2024-02-26T00:21:40;6.40;99.90
17442;DHT22;8838;50.144;8.176;2024-02-26T00:24:07;6.40;99.90
17442;DHT22;8838;50.144;8.176;2024-02-26T00:26:34;6.50;99.90
17442;DHT22;8838;50.144;8.176;2024-02-26T00:29:01;6.50;99.90
17442;DHT22;8838;50.144;8.176;2024-02-26T00:31:28;6.50;99.90
17442;DHT22;8838;50.144;8.176;2024-02-26T00:33:54;6.50;99.90
17442;DHT22;8838;50.144;8.176;2024-02-26T00:36:23;6.50;99.90
17442;DHT22;8838;50.144;8.176;2024-02-26T00:38:50;6.50;99.90
17442;DHT22;8838;50.144;8.176;2024-02-26T00:41:17;6.60;99.90
17442;DHT22;8838;50.144;8.176;2024-02-26T00:43:44;6.70;99.90
17442;DHT22;8838;50.144;8.176;2024-02-26T00:46:11;6.80;99.90
17442;DHT22;8838;50.144;8.176;2024-02-26T00:48:38;6.80;99.90
17442;DHT22;8838;50.144;8.176;2024-02-26T00:51:05;6.80;99.90
17442;DHT22;8838;50.144;8.176;2024-02-26T00:53:34;6.90;99.90
17442;DHT22;8838;50.144;8.176;2024-02-26T00:56:01;6.90;99.90
17442;DHT22;8838;50.144;8.176;2024-02-26T00:58:28;6.80;99.90
17442;DHT22;8838;50.144;8.176;2024-02-26T01:00:54;6.90;99.90
17442;DHT22;8838;50.144;8.176;2024-02-26T01:03:21;7.00;99.90
17442;DHT22;8838;50.144;8.176;2024-02-26T01:05:48;7.20;99.90
17442;DHT22;8838;50.144;8.176;2024-02-26T01:08:15;7.40;99.90
17442;DHT22;8838;50.144;8.176;2024-02-26T01:10:43;7.50;99.90
17442;DHT22;8838;50.144;8.176;2024-02-26T01:13:10;7.70;99.90
17442;DHT22;8838;50.144;8.176;2024-02-26T01:15:37;7.70;99.90
17442;DHT22;8838;50.144;8.176;2024-02-26T01:18:04;7.70;99.90
17442;DHT22;8838;50.144;8.176;2024-02-26T01:20:31;7.70;99.90
17442;DHT22;8838;50.144;8.176;2024-02-26T01:22:57;7.60;99.90
17442;DHT22;8838;50.144;8.176;2024-02-26T01:25:24;7.50;99.90
17442;DHT22;8838;50.144;8.176;2024-02-26T01:27:52;7.40;99.90
17442;DHT22;8838;50.144;8.176;2024-02-26T01:30:19;7.30;99.90
17442;DHT22;8838;50.144;8.176;2024-02-26T01:32:46;7.30;99.90
17442;DHT22;8838;50.144;8.176;2024-02-26T01:35:13;7.30;99.90
17442;DHT22;8838;50.144;8.176;2024-02-26T01:37:39;7.20;99.90
17442;DHT22;8838;50.144;8.176;2024-02-26T01:40:07;7.10;99.90
17442;DHT22;8838;50.144;8.176;2024-02-26T01:42:35;7.10;99.90
17442;DHT22;8838;50.144;8.176;2024-02-26T01:45:12;7.00;99.90
17442;DHT22;8838;50.144;8.176;2024-02-26T01:47:41;7.00;99.90
17442;DHT22;8838;50.144;8.176;2024-02-26T01:50:09;7.00;99.90
17442;DHT22;8838;50.144;8.176;2024-02-26T01:52:35;7.00;99.90
17442;DHT22;8838;50.144;8.176;2024-02-26T01:55:03;7.00;99.90
17442;DHT22;8838;50.144;8.176;2024-02-26T01:57:30;7.00;99.90
17442;DHT22;8838;50.144;8.176;2024-02-26T01:59:57;7.10;99.90
17442;DHT22;8838;50.144;8.176;2024-02-26T02:02:25;7.10;99.90
17442;DHT22;8838;50.144;8.176;2024-02-26T02:04:52;7.00;99.90
17442;DHT22;8838;50.144;8.176;2024-02-26T02:07:20;7.00;99.90
17442;DHT22;8838;50.144;8.176;2024-02-26T02:09:48;7.00;99.90
17442;DHT22;8838;50.144;8.176;2024-02-26T02:12:22;6.90;99.90
17442;DHT22;8838;50.144;8.176;2024-02-26T02:14:49;6.80;99.90
17442;DHT22;8838;50.144;8.176;2024-02-26T02:17:16;6.80;99.90
17442;DHT22;8838;50.144;8.176;2024-02-26T02:19:44;6.80;99.90
17442;DHT22;8838;50.144;8.176;2024-02-26T02:22:12;6.70;99.90
17442;DHT22;8838;50.144;8.176;2024-02-26T02:24:39;6.70;99.90
17442;DHT22;8838;50.144;8.176;2024-02-26T02:27:06;6.70;99.90
17442;DHT22;8838;50.144;8.176;2024-02-26T02:29:35;6.70;99.90
17442;DHT22;8838;50.144;8.176;2024-02-26T02:32:03;6.70;99.90
17442;DHT22;8838;50.144;8.176;2024-02-26T02:34:32;6.70;99.90
17442;DHT22;8838;50.144;8.176;2024-02-26T02:37:00;6.70;99.90
17442;DHT22;8838;50.144;8.176;2024-02-26T02:39:29;6.70;99.90
17442;DHT22;8838;50.144;8.176;2024-02-26T02:41:55;6.70;99.90
17442;DHT22;8838;50.144;8.176;2024-02-26T02:44:24;6.70;99.90
17442;DHT22;8838;50.144;8.176;2024-02-26T02:46:51;6.80;99.90
17442;DHT22;8838;50.144;8.176;2024-02-26T02:49:18;6.70;99.90
17442;DHT22;8838;50.144;8.176;2024-02-26T02:51:45;6.80;99.90
17442;DHT22;8838;50.144;8.176;2024-02-26T02:54:12;6.70;99.90
17442;DHT22;8838;50.144;8.176;2024-02-26T02:56:40;6.60;99.90
17442;DHT22;8838;50.144;8.176;2024-02-26T02:59:07;6.60;99.90
17442;DHT22;8838;50.144;8.176;2024-02-26T03:01:34;6.60;99.90
17442;DHT22;8838;50.144;8.176;2024-02-26T03:04:00;6.60;99.90
17442;DHT22;8838;50.144;8.176;2024-02-26T03:06:27;6.50;99.90
17442;DHT22;8838;50.144;8.176;2024-02-26T03:08:54;6.50;99.90
17442;DHT22;8838;50.144;8.176;2024-02-26T03:11:21;6.50;99.90
17442;DHT22;8838;50.144;8.176;2024-02-26T03:13:49;6.50;99.90
17442;DHT22;8838;50.144;8.176;2024-02-26T03:16:16;6.40;99.90
17442;DHT22;8838;50.144;8.176;2024-02-26T03:18:43;6.40;99.90
17442;DHT22;8838;50.144;8.176;2024-02-26T03:21:10;6.40;99.90
17442;DHT22;8838;50.144;8.176;2024-02-26T03:23:37;6.40;99.90
17442;DHT22;8838;50.144;8.176;2024-02-26T03:26:04;6.30;99.90
17442;DHT22;8838;50.144;8.176;2024-02-26T03:28:30;6.20;99.90
17442;DHT22;8838;50.144;8.176;2024-02-26T03:31:00;6.20;99.90
17442;DHT22;8838;50.144;8.176;2024-02-26T03:33:27;6.10;99.90
17442;DHT22;8838;50.144;8.176;2024-02-26T03:35:54;6.20;99.90
17442;DHT22;8838;50.144;8.176;2024-02-26T03:38:21;6.20;99.90
17442;DHT22;8838;50.144;8.176;2024-02-26T03:40:48;6.10;99.90
17442;DHT22;8838;50.144;8.176;2024-02-26T03:43:15;6.10;99.90
17442;DHT22;8838;50.144;8.176;2024-02-26T03:45:41;6.00;99.90
17442;DHT22;8838;50.144;8.176;2024-02-26T03:48:10;6.00;99.90
17442;DHT22;8838;50.144;8.176;2024-02-26T03:50:38;5.90;99.90
17442;DHT22;8838;50.144;8.176;2024-02-26T03:53:05;5.90;99.90
17442;DHT22;8838;50.144;8.176;2024-02-26T03:55:34;5.80;99.90
17442;DHT22;8838;50.144;8.176;2024-02-26T03:58:01;5.80;99.90
17442;DHT22;8838;50.144;8.176;2024-02-26T04:00:28;5.80;99.90
17442;DHT22;8838;50.144;8.176;2024-02-26T04:02:55;5.80;99.90
17442;DHT22;8838;50.144;8.176;2024-02-26T04:05:26;5.80;99.90
17442;DHT22;8838;50.144;8.176;2024-02-26T04:07:56;5.80;99.90
17442;DHT22;8838;50.144;8.176;2024-02-26T04:10:23;5.80;99.90
17442;DHT22;8838;50.144;8.176;2024-02-26T04:12:50;5.60;99.90
17442;DHT22;8838;50.144;8.176;2024-02-26T04:15:17;5.70;99.90
17442;DHT22;8838;50.144;8.176;2024-02-26T04:17:43;5.70;99.90
17442;DHT22;8838;50.144;8.176;2024-02-26T04:20:14;5.60;99.90
17442;DHT22;8838;50.144;8.176;2024-02-26T04:22:42;5.50;99.90
17442;DHT22;8838;50.144;8.176;2024-02-26T04:25:09;5.40;99.90
17442;DHT22;8838;50.144;8.176;2024-02-26T04:27:36;5.40;99.90
17442;DHT22;8838;50.144;8.176;2024-02-26T04:30:04;5.40;99.90
17442;DHT22;8838;50.144;8.176;2024-02-26T04:32:31;5.40;99.90
17442;DHT22;8838;50.144;8.176;2024-02-26T04:34:58;5.30;99.90
17442;DHT22;8838;50.144;8.176;2024-02-26T04:37:25;5.30;99.90
17442;DHT22;8838;50.144;8.176;2024-02-26T04:39:58;5.30;99.90
17442;DHT22;8838;50.144;8.176;2024-02-26T04:42:24;5.20;99.90
17442;DHT22;8838;50.144;8.176;2024-02-26T04:44:51;5.20;99.90
17442;DHT22;8838;50.144;8.176;2024-02-26T04:47:18;5.20;99.90
17442;DHT22;8838;50.144;8.176;2024-02-26T04:49:45;5.20;99.90
17442;DHT22;8838;50.144;8.176;2024-02-26T04:52:11;5.20;99.90
17442;DHT22;8838;50.144;8.176;2024-02-26T04:54:37;5.10;99.90
17442;DHT22;8838;50.144;8.176;2024-02-26T04:57:06;5.30;99.90
17442;DHT22;8838;50.144;8.176;2024-02-26T04:59:33;5.30;99.90
17442;DHT22;8838;50.144;8.176;2024-02-26T05:01:59;5.30;99.90
17442;DHT22;8838;50.144;8.176;2024-02-26T05:04:26;5.30;99.90
17442;DHT22;8838;50.144;8.176;2024-02-26T05:06:53;5.30;99.90
17442;DHT22;8838;50.144;8.176;2024-02-26T05:09:20;5.30;99.90
17442;DHT22;8838;50.144;8.176;2024-02-26T05:11:47;5.30;99.90
17442;DHT22;8838;50.144;8.176;2024-02-26T05:14:15;5.30;99.90
17442;DHT22;8838;50.144;8.176;2024-02-26T05:16:42;5.30;99.90
17442;DHT22;8838;50.144;8.176;2024-02-26T05:19:08;5.30;99.90
17442;DHT22;8838;50.144;8.176;2024-02-26T05:21:35;5.30;99.90
17442;DHT22;8838;50.144;8.176;2024-02-26T05:24:02;5.30;99.90
17442;DHT22;8838;50.144;8.176;2024-02-26T05:26:29;5.30;99.90
17442;DHT22;8838;50.144;8.176;2024-02-26T05:28:56;5.30;99.90
17442;DHT22;8838;50.144;8.176;2024-02-26T05:31:26;5.20;99.90
17442;DHT22;8838;50.144;8.176;2024-02-26T05:33:54;5.20;99.90
17442;DHT22;8838;50.144;8.176;2024-02-26T05:36:21;5.20;99.90
17442;DHT22;8838;50.144;8.176;2024-02-26T05:38:48;5.30;99.90
17442;DHT22;8838;50.144;8.176;2024-02-26T05:41:16;5.20;99.90
17442;DHT22;8838;50.144;8.176;2024-02-26T05:43:48;5.20;99.90
17442;DHT22;8838;50.144;8.176;2024-02-26T05:46:16;5.30;99.90
17442;DHT22;8838;50.144;8.176;2024-02-26T05:48:45;5.20;99.90
17442;DHT22;8838;50.144;8.176;2024-02-26T05:51:12;5.30;99.90
17442;DHT22;8838;50.144;8.176;2024-02-26T05:53:40;5.30;99.90
17442;DHT22;8838;50.144;8.176;2024-02-26T05:56:07;5.30;99.90
17442;DHT22;8838;50.144;8.176;2024-02-26T05:58:34;5.30;99.90
17442;DHT22;8838;50.144;8.176;2024-02-26T06:01:01;5.30;99.90
17442;DHT22;8838;50.144;8.176;2024-02-26T06:03:27;5.20;99.90
17442;DHT22;8838;50.144;8.176;2024-02-26T06:05:56;5.20;99.90
17442;DHT22;8838;50.144;8.176;2024-02-26T06:08:22;5.20;99.90
17442;DHT22;8838;50.144;8.176;2024-02-26T06:10:49;5.20;99.90
17442;DHT22;8838;50.144;8.176;2024-02-26T06:13:16;5.30;99.90
17442;DHT22;8838;50.144;8.176;2024-02-26T06:15:43;5.30;99.90
17442;DHT22;8838;50.144;8.176;2024-02-26T06:18:10;5.30;99.90
17442;DHT22;8838;50.144;8.176;2024-02-26T06:20:36;5.30;99.90
17442;DHT22;8838;50.144;8.176;2024-02-26T06:23:04;5.40;99.90
17442;DHT22;8838;50.144;8.176;2024-02-26T06:25:32;5.40;99.90
17442;DHT22;8838;50.144;8.176;2024-02-26T06:27:59;5.40;99.90
17442;DHT22;8838;50.144;8.176;2024-02-26T06:30:26;5.30;99.90
17442;DHT22;8838;50.144;8.176;2024-02-26T06:32:53;5.30;99.90
17442;DHT22;8838;50.144;8.176;2024-02-26T06:35:19;5.20;99.90
17442;DHT22;8838;50.144;8.176;2024-02-26T06:37:46;5.20;99.90
17442;DHT22;8838;50.144;8.176;2024-02-26T06:40:17;5.20;99.90
17442;DHT22;8838;50.144;8.176;2024-02-26T06:42:44;5.20;99.90
17442;DHT22;8838;50.144;8.176;2024-02-26T06:45:11;5.30;99.90
17442;DHT22;8838;50.144;8.176;2024-02-26T06:47:38;5.40;99.90
17442;DHT22;8838;50.144;8.176;2024-02-26T06:50:05;5.30;99.90
17442;DHT22;8838;50.144;8.176;2024-02-26T06:52:34;5.30;99.90
17442;DHT22;8838;50.144;8.176;2024-02-26T06:55:01;5.30;99.90
17442;DHT22;8838;50.144;8.176;2024-02-26T06:57:32;5.30;99.90
17442;DHT22;8838;50.144;8.176;2024-02-26T06:59:59;5.30;99.90
17442;DHT22;8838;50.144;8.176;2024-02-26T07:02:26;5.30;99.90
17442;DHT22;8838;50.144;8.176;2024-02-26T07:04:53;5.20;99.90
17442;DHT22;8838;50.144;8.176;2024-02-26T07:07:21;5.30;99.90
17442;DHT22;8838;50.144;8.176;2024-02-26T07:09:49;5.30;99.90
17442;DHT22;8838;50.144;8.176;2024-02-26T07:12:16;5.20;99.90
17442;DHT22;8838;50.144;8.176;2024-02-26T07:14:44;5.30;99.90
17442;DHT22;8838;50.144;8.176;2024-02-26T07:17:11;5.20;99.90
17442;DHT22;8838;50.144;8.176;2024-02-26T07:19:38;5.20;99.90
17442;DHT22;8838;50.144;8.176;2024-02-26T07:22:05;5.20;99.90
17442;DHT22;8838;50.144;8.176;2024-02-26T07:24:31;5.20;99.90
17442;DHT22;8838;50.144;8.176;2024-02-26T07:26:58;5.30;99.90
17442;DHT22;8838;50.144;8.176;2024-02-26T07:29:25;5.30;99.90
17442;DHT22;8838;50.144;8.176;2024-02-26T07:31:53;5.30;99.90
17442;DHT22;8838;50.144;8.176;2024-02-26T07:34:20;5.30;99.90
17442;DHT22;8838;50.144;8.176;2024-02-26T07:36:52;5.30;99.90
17442;DHT22;8838;50.144;8.176;2024-02-26T07:39:19;5.30;99.90
17442;DHT22;8838;50.144;8.176;2024-02-26T07:41:46;5.30;99.90
17442;DHT22;8838;50.144;8.176;2024-02-26T07:44:15;5.30;99.90
17442;DHT22;8838;50.144;8.176;2024-02-26T07:46:43;5.30;99.90
17442;DHT22;8838;50.144;8.176;2024-02-26T07:49:12;5.30;99.90
17442;DHT22;8838;50.144;8.176;2024-02-26T07:51:38;5.10;99.90
17442;DHT22;8838;50.144;8.176;2024-02-26T07:54:05;5.10;99.90
17442;DHT22;8838;50.144;8.176;2024-02-26T07:56:32;5.00;99.90
17442;DHT22;8838;50.144;8.176;2024-02-26T07:58:59;5.00;99.90
17442;DHT22;8838;50.144;8.176;2024-02-26T08:01:26;5.10;99.90
17442;DHT22;8838;50.144;8.176;2024-02-26T08:03:53;5.10;99.90
17442;DHT22;8838;50.144;8.176;2024-02-26T08:06:23;5.00;99.90
17442;DHT22;8838;50.144;8.176;2024-02-26T08:08:50;5.10;99.90
17442;DHT22;8838;50.144;8.176;2024-02-26T08:11:16;5.10;99.90
17442;DHT22;8838;50.144;8.176;2024-02-26T08:13:43;5.10;99.90
17442;DHT22;8838;50.144;8.176;2024-02-26T08:16:10;5.20;99.90
17442;DHT22;8838;50.144;8.176;2024-02-26T08:18:37;5.20;99.90
17442;DHT22;8838;50.144;8.176;2024-02-26T08:21:04;5.40;99.90
17442;DHT22;8838;50.144;8.176;2024-02-26T08:23:32;5.40;99.90
17442;DHT22;8838;50.144;8.176;2024-02-26T08:25:59;5.40;99.90
17442;DHT22;8838;50.144;8.176;2024-02-26T08:28:26;5.50;99.90
17442;DHT22;8838;50.144;8.176;2024-02-26T08:30:53;5.60;99.90
17442;DHT22;8838;50.144;8.176;2024-02-26T08:33:19;5.60;99.90
17442;DHT22;8838;50.144;8.176;2024-02-26T08:35:46;5.70;99.90
17442;DHT22;8838;50.144;8.176;2024-02-26T08:38:13;5.70;99.90
17442;DHT22;8838;50.144;8.176;2024-02-26T08:40:41;5.70;99.90
17442;DHT22;8838;50.144;8.176;2024-02-26T08:43:08;5.80;99.90
17442;DHT22;8838;50.144;8.176;2024-02-26T08:45:35;5.80;99.90
17442;DHT22;8838;50.144;8.176;2024-02-26T08:48:02;5.90;99.90
17442;DHT22;8838;50.144;8.176;2024-02-26T08:50:29;5.90;99.90
17442;DHT22;8838;50.144;8.176;2024-02-26T08:52:56;5.90;99.90
17442;DHT22;8838;50.144;8.176;2024-02-26T08:55:23;5.80;99.90
17442;DHT22;8838;50.144;8.176;2024-02-26T08:57:52;5.80;99.90
17442;DHT22;8838;50.144;8.176;2024-02-26T09:00:19;5.80;99.90
17442;DHT22;8838;50.144;8.176;2024-02-26T09:02:46;5.80;99.90
17442;DHT22;8838;50.144;8.176;2024-02-26T09:05:14;5.80;99.90
17442;DHT22;8838;50.144;8.176;2024-02-26T09:07:41;5.70;99.90
17442;DHT22;8838;50.144;8.176;2024-02-26T09:10:08;5.80;99.90
17442;DHT22;8838;50.144;8.176;2024-02-26T09:12:36;5.80;99.90
17442;DHT22;8838;50.144;8.176;2024-02-26T09:15:05;5.90;99.90
17442;DHT22;8838;50.144;8.176;2024-02-26T09:17:32;6.00;99.90
17442;DHT22;8838;50.144;8.176;2024-02-26T09:19:59;6.00;99.90
17442;DHT22;8838;50.144;8.176;2024-02-26T09:22:26;6.10;99.90
17442;DHT22;8838;50.144;8.176;2024-02-26T09:24:53;6.10;99.90
17442;DHT22;8838;50.144;8.176;2024-02-26T09:27:20;6.20;99.90
17442;DHT22;8838;50.144;8.176;2024-02-26T09:29:46;6.10;99.90
17442;DHT22;8838;50.144;8.176;2024-02-26T09:32:15;6.00;99.90
17442;DHT22;8838;50.144;8.176;2024-02-26T09:34:41;6.00;99.90
17442;DHT22;8838;50.144;8.176;2024-02-26T09:37:09;5.90;99.90
17442;DHT22;8838;50.144;8.176;2024-02-26T09:39:35;5.90;99.90
17442;DHT22;8838;50.144;8.176;2024-02-26T09:42:04;6.00;99.90
17442;DHT22;8838;50.144;8.176;2024-02-26T09:44:33;6.00;99.90
17442;DHT22;8838;50.144;8.176;2024-02-26T09:47:05;6.10;99.90
17442;DHT22;8838;50.144;8.176;2024-02-26T09:49:34;6.20;99.90
17442;DHT22;8838;50.144;8.176;2024-02-26T09:52:01;6.20;99.90
17442;DHT22;8838;50.144;8.176;2024-02-26T09:54:30;6.10;99.90
17442;DHT22;8838;50.144;8.176;2024-02-26T09:57:00;6.20;99.90
17442;DHT22;8838;50.144;8.176;2024-02-26T09:59:29;6.20;99.90
17442;DHT22;8838;50.144;8.176;2024-02-26T10:02:01;6.10;99.90
17442;DHT22;8838;50.144;8.176;2024-02-26T10:04:29;6.10;99.90
17442;DHT22;8838;50.144;8.176;2024-02-26T10:06:59;6.00;99.90
17442;DHT22;8838;50.144;8.176;2024-02-26T10:09:28;6.00;99.90
17442;DHT22;8838;50.144;8.176;2024-02-26T10:11:55;6.10;99.90
17442;DHT22;8838;50.144;8.176;2024-02-26T10:14:22;6.20;99.90
17442;DHT22;8838;50.144;8.176;2024-02-26T10:16:50;6.40;99.90
17442;DHT22;8838;50.144;8.176;2024-02-26T10:19:25;6.60;99.90
17442;DHT22;8838;50.144;8.176;2024-02-26T10:21:55;6.70;99.90
17442;DHT22;8838;50.144;8.176;2024-02-26T10:24:24;7.00;99.90
17442;DHT22;8838;50.144;8.176;2024-02-26T10:26:51;7.20;99.90
17442;DHT22;8838;50.144;8.176;2024-02-26T10:29:21;7.50;99.90
17442;DHT22;8838;50.144;8.176;2024-02-26T10:31:48;7.80;99.90
17442;DHT22;8838;50.144;8.176;2024-02-26T10:34:17;8.00;99.90
17442;DHT22;8838;50.144;8.176;2024-02-26T10:36:44;8.30;99.90
17442;DHT22;8838;50.144;8.176;2024-02-26T10:39:12;8.60;99.90
17442;DHT22;8838;50.144;8.176;2024-02-26T10:41:41;8.90;99.90
17442;DHT22;8838;50.144;8.176;2024-02-26T10:44:09;9.00;99.90
17442;DHT22;8838;50.144;8.176;2024-02-26T10:46:37;8.90;99.90
17442;DHT22;8838;50.144;8.176;2024-02-26T10:49:04;8.60;99.90
17442;DHT22;8838;50.144;8.176;2024-02-26T10:51:37;8.40;99.90
17442;DHT22;8838;50.144;8.176;2024-02-26T10:54:06;8.30;99.90
17442;DHT22;8838;50.144;8.176;2024-02-26T10:56:35;8.50;99.90
17442;DHT22;8838;50.144;8.176;2024-02-26T10:59:07;8.60;99.90
17442;DHT22;8838;50.144;8.176;2024-02-26T11:01:36;8.80;99.90
17442;DHT22;8838;50.144;8.176;2024-02-26T11:04:04;9.30;99.90
17442;DHT22;8838;50.144;8.176;2024-02-26T11:06:31;9.60;99.90
17442;DHT22;8838;50.144;8.176;2024-02-26T11:09:00;9.60;99.90
17442;DHT22;8838;50.144;8.176;2024-02-26T11:11:28;9.60;99.90
17442;DHT22;8838;50.144;8.176;2024-02-26T11:13:56;9.30;99.90
17442;DHT22;8838;50.144;8.176;2024-02-26T11:16:26;8.90;99.90
17442;DHT22;8838;50.144;8.176;2024-02-26T11:18:55;8.70;99.90
17442;DHT22;8838;50.144;8.176;2024-02-26T11:21:22;8.80;99.90
17442;DHT22;8838;50.144;8.176;2024-02-26T11:23:56;8.70;99.90
17442;DHT22;8838;50.144;8.176;2024-02-26T11:26:24;8.70;99.90
17442;DHT22;8838;50.144;8.176;2024-02-26T11:28:52;8.70;99.90
17442;DHT22;8838;50.144;8.176;2024-02-26T11:31:20;8.80;99.90
17442;DHT22;8838;50.144;8.176;2024-02-26T11:33:54;8.90;99.90
17442;DHT22;8838;50.144;8.176;2024-02-26T11:36:23;8.90;99.90
17442;DHT22;8838;50.144;8.176;2024-02-26T11:38:51;8.90;99.90
17442;DHT22;8838;50.144;8.176;2024-02-26T11:41:18;9.00;99.90
17442;DHT22;8838;50.144;8.176;2024-02-26T11:43:51;9.20;99.90
17442;DHT22;8838;50.144;8.176;2024-02-26T11:46:28;9.50;99.90
17442;DHT22;8838;50.144;8.176;2024-02-26T11:49:01;9.90;99.90
17442;DHT22;8838;50.144;8.176;2024-02-26T11:51:33;10.00;99.90
17442;DHT22;8838;50.144;8.176;2024-02-26T11:54:00;10.10;99.90
17442;DHT22;8838;50.144;8.176;2024-02-26T11:56:27;9.90;99.90
17442;DHT22;8838;50.144;8.176;2024-02-26T11:59:00;9.90;99.90
17442;DHT22;8838;50.144;8.176;2024-02-26T12:01:49;9.60;99.90
17442;DHT22;8838;50.144;8.176;2024-02-26T12:04:21;9.60;99.90
17442;DHT22;8838;50.144;8.176;2024-02-26T12:06:53;9.70;99.90
17442;DHT22;8838;50.144;8.176;2024-02-26T12:09:34;9.80;99.90
17442;DHT22;8838;50.144;8.176;2024-02-26T12:12:02;10.20;99.90
17442;DHT22;8838;50.144;8.176;2024-02-26T12:14:29;10.50;99.90
17442;DHT22;8838;50.144;8.176;2024-02-26T12:16:56;11.10;99.90
17442;DHT22;8838;50.144;8.176;2024-02-26T12:19:25;11.70;99.90
17442;DHT22;8838;50.144;8.176;2024-02-26T12:21:52;12.00;99.90
17442;DHT22;8838;50.144;8.176;2024-02-26T12:24:20;11.70;99.90
17442;DHT22;8838;50.144;8.176;2024-02-26T12:26:47;11.30;99.90
17442;DHT22;8838;50.144;8.176;2024-02-26T12:29:14;11.00;99.90
17442;DHT22;8838;50.144;8.176;2024-02-26T12:31:41;10.70;99.90
17442;DHT22;8838;50.144;8.176;2024-02-26T12:34:09;10.40;99.90
17442;DHT22;8838;50.144;8.176;2024-02-26T12:36:37;10.10;99.90
17442;DHT22;8838;50.144;8.176;2024-02-26T12:39:05;10.00;99.90
17442;DHT22;8838;50.144;8.176;2024-02-26T12:41:32;10.20;99.90
17442;DHT22;8838;50.144;8.176;2024-02-26T12:44:00;10.50;99.90
17442;DHT22;8838;50.144;8.176;2024-02-26T12:46:27;10.20;99.90
17442;DHT22;8838;50.144;8.176;2024-02-26T12:48:56;9.80;99.90
17442;DHT22;8838;50.144;8.176;2024-02-26T12:51:24;9.80;99.90
17442;DHT22;8838;50.144;8.176;2024-02-26T12:53:53;9.80;99.90
17442;DHT22;8838;50.144;8.176;2024-02-26T12:56:21;9.90;99.90
17442;DHT22;8838;50.144;8.176;2024-02-26T12:58:50;10.00;99.90
17442;DHT22;8838;50.144;8.176;2024-02-26T13:01:19;9.90;99.90
17442;DHT22;8838;50.144;8.176;2024-02-26T13:03:48;9.90;99.90
17442;DHT22;8838;50.144;8.176;2024-02-26T13:06:15;9.90;99.90
17442;DHT22;8838;50.144;8.176;2024-02-26T13:08:43;9.70;99.90
17442;DHT22;8838;50.144;8.176;2024-02-26T13:11:11;9.70;99.90
17442;DHT22;8838;50.144;8.176;2024-02-26T13:13:38;9.70;99.90
17442;DHT22;8838;50.144;8.176;2024-02-26T13:16:05;9.80;99.90
17442;DHT22;8838;50.144;8.176;2024-02-26T13:18:33;10.00;99.90
17442;DHT22;8838;50.144;8.176;2024-02-26T13:21:09;10.10;99.90
17442;DHT22;8838;50.144;8.176;2024-02-26T13:23:37;10.40;99.90
17442;DHT22;8838;50.144;8.176;2024-02-26T13:26:04;10.50;99.90
17442;DHT22;8838;50.144;8.176;2024-02-26T13:28:32;10.70;99.90
17442;DHT22;8838;50.144;8.176;2024-02-26T13:31:00;10.60;99.90
17442;DHT22;8838;50.144;8.176;2024-02-26T13:33:29;10.70;99.90
17442;DHT22;8838;50.144;8.176;2024-02-26T13:35:57;10.60;99.90
17442;DHT22;8838;50.144;8.176;2024-02-26T13:38:25;10.50;99.90
17442;DHT22;8838;50.144;8.176;2024-02-26T13:40:52;10.40;99.90
17442;DHT22;8838;50.144;8.176;2024-02-26T13:43:19;10.20;99.90
17442;DHT22;8838;50.144;8.176;2024-02-26T13:45:47;10.10;99.90
17442;DHT22;8838;50.144;8.176;2024-02-26T13:48:14;10.00;99.90
17442;DHT22;8838;50.144;8.176;2024-02-26T13:50:42;9.80;99.90
17442;DHT22;8838;50.144;8.176;2024-02-26T13:53:11;9.90;99.90
17442;DHT22;8838;50.144;8.176;2024-02-26T13:55:38;9.90;99.90
17442;DHT22;8838;50.144;8.176;2024-02-26T13:58:07;9.90;99.90
17442;DHT22;8838;50.144;8.176;2024-02-26T14:00:35;9.70;99.90
17442;DHT22;8838;50.144;8.176;2024-02-26T14:03:03;9.70;99.90
17442;DHT22;8838;50.144;8.176;2024-02-26T14:05:31;9.80;99.90
17442;DHT22;8838;50.144;8.176;2024-02-26T14:07:57;9.60;99.90
17442;DHT22;8838;50.144;8.176;2024-02-26T14:10:24;9.60;99.90
17442;DHT22;8838;50.144;8.176;2024-02-26T14:12:51;9.60;99.90
17442;DHT22;8838;50.144;8.176;2024-02-26T14:15:18;9.60;99.90
17442;DHT22;8838;50.144;8.176;2024-02-26T14:17:45;9.60;99.90
17442;DHT22;8838;50.144;8.176;2024-02-26T14:20:20;9.40;99.90
17442;DHT22;8838;50.144;8.176;2024-02-26T14:22:47;9.30;99.90
17442;DHT22;8838;50.144;8.176;2024-02-26T14:25:14;9.10;99.90
17442;DHT22;8838;50.144;8.176;2024-02-26T14:27:41;9.20;99.90
17442;DHT22;8838;50.144;8.176;2024-02-26T14:30:08;9.10;99.90
17442;DHT22;8838;50.144;8.176;2024-02-26T14:32:35;9.20;99.90
17442;DHT22;8838;50.144;8.176;2024-02-26T14:35:04;9.30;99.90
17442;DHT22;8838;50.144;8.176;2024-02-26T14:37:33;9.50;99.90
17442;DHT22;8838;50.144;8.176;2024-02-26T14:40:00;9.70;99.90
17442;DHT22;8838;50.144;8.176;2024-02-26T14:42:26;9.80;99.90
17442;DHT22;8838;50.144;8.176;2024-02-26T14:44:53;9.80;99.90
17442;DHT22;8838;50.144;8.176;2024-02-26T14:47:20;9.60;99.90
17442;DHT22;8838;50.144;8.176;2024-02-26T14:49:47;9.50;99.90
17442;DHT22;8838;50.144;8.176;2024-02-26T14:52:14;9.60;99.90
17442;DHT22;8838;50.144;8.176;2024-02-26T14:54:42;9.70;99.90
17442;DHT22;8838;50.144;8.176;2024-02-26T14:57:08;9.60;99.90
17442;DHT22;8838;50.144;8.176;2024-02-26T14:59:35;9.50;99.90
17442;DHT22;8838;50.144;8.176;2024-02-26T15:02:03;9.50;99.90
17442;DHT22;8838;50.144;8.176;2024-02-26T15:04:30;9.60;99.90
17442;DHT22;8838;50.144;8.176;2024-02-26T15:06:57;9.70;99.90
17442;DHT22;8838;50.144;8.176;2024-02-26T15:09:23;9.80;99.90
17442;DHT22;8838;50.144;8.176;2024-02-26T15:11:52;9.80;99.90
17442;DHT22;8838;50.144;8.176;2024-02-26T15:14:19;9.80;99.90
17442;DHT22;8838;50.144;8.176;2024-02-26T15:16:46;9.90;99.90
17442;DHT22;8838;50.144;8.176;2024-02-26T15:19:13;9.90;99.90
17442;DHT22;8838;50.144;8.176;2024-02-26T15:21:43;9.90;99.90
17442;DHT22;8838;50.144;8.176;2024-02-26T15:24:10;10.00;99.90
17442;DHT22;8838;50.144;8.176;2024-02-26T15:26:37;10.10;99.90
17442;DHT22;8838;50.144;8.176;2024-02-26T15:29:07;10.10;99.90
17442;DHT22;8838;50.144;8.176;2024-02-26T15:31:35;10.00;99.90
17442;DHT22;8838;50.144;8.176;2024-02-26T15:34:02;10.00;99.90
17442;DHT22;8838;50.144;8.176;2024-02-26T15:36:29;10.00;99.90
17442;DHT22;8838;50.144;8.176;2024-02-26T15:38:56;10.00;99.90
17442;DHT22;8838;50.144;8.176;2024-02-26T15:41:23;10.00;99.90
17442;DHT22;8838;50.144;8.176;2024-02-26T15:43:50;9.90;99.90
17442;DHT22;8838;50.144;8.176;2024-02-26T15:46:18;9.90;99.90
17442;DHT22;8838;50.144;8.176;2024-02-26T15:48:45;9.90;99.90
17442;DHT22;8838;50.144;8.176;2024-02-26T15:51:18;9.90;99.90
17442;DHT22;8838;50.144;8.176;2024-02-26T15:53:46;9.90;99.90
17442;DHT22;8838;50.144;8.176;2024-02-26T15:56:13;9.80;99.90
17442;DHT22;8838;50.144;8.176;2024-02-26T15:58:40;9.80;99.90
17442;DHT22;8838;50.144;8.176;2024-02-26T16:01:07;9.80;99.90
17442;DHT22;8838;50.144;8.176;2024-02-26T16:03:38;9.80;99.90